11 a 20/10 - Templado con algunos FF; tormentas N, centro y más aisladas E

Avatar de Usuario
Diecha
Mensajes: 17773
Registrado: Jue Ago 25, 2011 9:31 pm
Ubicación: Lomas de Zamora

Re: 11 a 20/10 - Templado con algunos FF; tormentas N, centro y más aisladas E

Mensaje por Diecha » Dom Oct 17, 2021 5:10 pm



Imagen
Imagen



Imagen

- Tandil 17 hs: SAZT 172000Z 20010KT 9999 SCT035 FEW040CB BKN100 21/04 Q1017
- Mar del Plata 17 hs: SAZM 172000Z 18012KT CAVOK 17/07 Q1019

Imagen

Avatar de Usuario
Ale de Castelar
Mensajes: 30560
Registrado: Sab Mar 03, 2012 12:25 pm
Ubicación: Caballito

Re: 11 a 20/10 - Templado con algunos FF; tormentas N, centro y más aisladas E

Mensaje por Ale de Castelar » Dom Oct 17, 2021 5:18 pm

Ayacucho, PBA


Avatar de Usuario
Diecha
Mensajes: 17773
Registrado: Jue Ago 25, 2011 9:31 pm
Ubicación: Lomas de Zamora

Re: 11 a 20/10 - Templado con algunos FF; tormentas N, centro y más aisladas E

Mensaje por Diecha » Dom Oct 17, 2021 5:20 pm



and96
Mensajes: 6454
Registrado: Mié Ago 15, 2012 2:32 pm
Ubicación: Tandil, BA

Re: 11 a 20/10 - Templado con algunos FF; tormentas N, centro y más aisladas E

Mensaje por and96 » Dom Oct 17, 2021 5:26 pm

La misma tormenta que afectó a Ayacucho pero vista desde algunos kilómetros :lol:

Imagen

Avatar de Usuario
Ale de Castelar
Mensajes: 30560
Registrado: Sab Mar 03, 2012 12:25 pm
Ubicación: Caballito

Re: 11 a 20/10 - Templado con algunos FF; tormentas N, centro y más aisladas E

Mensaje por Ale de Castelar » Dom Oct 17, 2021 6:05 pm

Ayacucho


Avatar de Usuario
Diecha
Mensajes: 17773
Registrado: Jue Ago 25, 2011 9:31 pm
Ubicación: Lomas de Zamora

Re: 11 a 20/10 - Templado con algunos FF; tormentas N, centro y más aisladas E

Mensaje por Diecha » Dom Oct 17, 2021 7:09 pm



Imagen
Imagen

Avatar de Usuario
Ezequiel15
Mensajes: 13194
Registrado: Lun Ene 23, 2012 4:18 pm
Ubicación: Ramos Mejia
Contactar:

Re: 11 a 20/10 - Templado con algunos FF; tormentas N, centro y más aisladas E

Mensaje por Ezequiel15 » Dom Oct 17, 2021 7:57 pm

Hoy OCBA reportó 11,0°C de mínima a las 6:30hs, con una mínima horaria de 12,6°C a las 6hs.
OCBA https://registrosmeteorologicosdelocba. ... ecada.html

Tenés razón. Hay todo un encadenamiento: lo cientiífico, lo coalicional, lo social ¿no? Hay un modelo discursivo-decisional bastante novedoso que empieza a aparecer

Avatar de Usuario
Ezequiel1995
Mensajes: 2342
Registrado: Mar Nov 12, 2019 4:50 pm
Ubicación: Merlo, Buenos Aires
Contactar:

Re: 11 a 20/10 - Templado con algunos FF; tormentas N, centro y más aisladas E

Mensaje por Ezequiel1995 » Dom Oct 17, 2021 8:02 pm

Fresco pero pesado por acá. Cielo muy brumoso
#MuerteALasLineas (by Fedex)
Aplicación Gustfront! 2.5

Avatar de Usuario
Diecha
Mensajes: 17773
Registrado: Jue Ago 25, 2011 9:31 pm
Ubicación: Lomas de Zamora

Re: 11 a 20/10 - Templado con algunos FF; tormentas N, centro y más aisladas E

Mensaje por Diecha » Dom Oct 17, 2021 8:10 pm



Imagen
Imagen



Imagen

- Tandil 20 hs: SAZT 172300Z 16012KT 9999 SCT030 FEW032 14/03 Q1020
- Mar del Plata 20 hs: SAZM 172300Z 18011KT CAVOK 12/07 Q1021

Imagen

Avatar de Usuario
Ale de Castelar
Mensajes: 30560
Registrado: Sab Mar 03, 2012 12:25 pm
Ubicación: Caballito

Re: 11 a 20/10 - Templado con algunos FF; tormentas N, centro y más aisladas E

Mensaje por Ale de Castelar » Dom Oct 17, 2021 8:34 pm

Partido de la costa


Responder